Aérodrome :
LOGIN :

S'inscrire | Disclaimer

   EN    FR    IT 

 










Légende :    VFR   VFR Marginal   IFR   IFR Intensif   IFR Très Intensif
Visi : 
Plafond : 
>= 8 km
>= 3000ft
5 à 8 km
1000 à 3000 ft
1500m à 5 km
500 à 1000 ft
800 à 1500m
200 à 500 ft
< 800m
< 200 ft
Symboles :   Orages  Brouillard  Fortes neiges  Fortes précipitations  Vent > 20 kt
SIGMETs :   Divers  Orages  Givrage  Turbulence  Onde Orograph.  Cendres Volcan.






- Altitude de l'aérodrome : 170 ft
- Code IATA : KRP


EKKA - Karup

DERNIER METAR :
  • 280452Z 15002KT 0800 R09/P2000N R27/P2000N BCFG SKC 08/07 Q1019 BECMG 9999 NSW

METARs EXPIRÉS :
  • 280420Z 19004KT 0800 R09/P2000N R27/1800U BCFG SKC 08/08 Q1018
  • 280418Z 18003KT 0800 R09/P2000N R27/1900D BCFG SKC 08/08 Q1018
  • 280408Z 18003KT 3000 MIFG SKC 08/08 Q1018
  • 280350Z AUTO 18003KT 9999 NCD 08/08 Q1018
  • 280320Z AUTO 20004KT 9999 NCD 09/08 Q1018
  • 280250Z AUTO 21004KT 9999 NCD 09/09 Q1018
  • 280220Z AUTO 21004KT 9999 NCD 10/09 Q1017

TAF AMD TAF EKKA
Valide du 28 à 03h jusqu'au 29 à 03h UTC


280449Z 2803/2903 25006KT 9999 FEW030
TEMPO 2804/2807 0800 BCFG
TEMPO 2811/2818 5000 SHRA SCT020CB
BECMG 2814/2817 14010KT
TEMPO 2821/2903 6000



MET'MAP, la Météo Aéronautique d'un coup d'oeil ! - Copyright ORBIFLY Décembre 2007 - Disclaimer

ORBIFLY MET'MAP TEAM :

Programmation & Développement : Alexandra Zaïnal
Sur une idée originale de : Baudouin d'Aumeries
Assistance à la programmation : Marc-Olivier Méhu
Soutien technique & logistique : Manuel Goepfert

Contact : metmap@orbifly.com




SOURCES & CREDITS :

   NOAA